sensor_id;sensor_type;location;lat;lon;timestamp;pressure;altitude;pressure_sealevel;temperature
16956;BMP180;8594;52.052;8.354;2022-11-15T00:00:32;100065.00;;;13.20
16956;BMP180;8594;52.052;8.354;2022-11-15T00:02:59;100058.00;;;13.10
16956;BMP180;8594;52.052;8.354;2022-11-15T00:05:26;100059.00;;;13.10
16956;BMP180;8594;52.052;8.354;2022-11-15T00:07:53;100054.00;;;13.10
16956;BMP180;8594;52.052;8.354;2022-11-15T00:10:20;100059.00;;;12.90
16956;BMP180;8594;52.052;8.354;2022-11-15T00:12:47;100060.00;;;12.80
16956;BMP180;8594;52.052;8.354;2022-11-15T00:15:14;100060.00;;;12.90
16956;BMP180;8594;52.052;8.354;2022-11-15T00:17:42;100068.00;;;13.20
16956;BMP180;8594;52.052;8.354;2022-11-15T00:20:10;100063.00;;;13.30
16956;BMP180;8594;52.052;8.354;2022-11-15T00:22:38;100065.00;;;13.40
16956;BMP180;8594;52.052;8.354;2022-11-15T00:25:06;100066.00;;;13.30
16956;BMP180;8594;52.052;8.354;2022-11-15T00:27:33;100061.00;;;13.30
16956;BMP180;8594;52.052;8.354;2022-11-15T00:30:00;100061.00;;;13.20
16956;BMP180;8594;52.052;8.354;2022-11-15T00:32:31;100055.00;;;13.30
16956;BMP180;8594;52.052;8.354;2022-11-15T00:34:59;100048.00;;;13.40
16956;BMP180;8594;52.052;8.354;2022-11-15T00:37:26;100035.00;;;13.20
16956;BMP180;8594;52.052;8.354;2022-11-15T00:39:53;100043.00;;;13.20
16956;BMP180;8594;52.052;8.354;2022-11-15T00:42:20;100039.00;;;13.10
16956;BMP180;8594;52.052;8.354;2022-11-15T00:44:47;100042.00;;;12.90
16956;BMP180;8594;52.052;8.354;2022-11-15T00:47:14;100034.00;;;13.00
16956;BMP180;8594;52.052;8.354;2022-11-15T00:49:41;100035.00;;;13.10
16956;BMP180;8594;52.052;8.354;2022-11-15T00:52:09;100035.00;;;13.20
16956;BMP180;8594;52.052;8.354;2022-11-15T00:54:36;100032.00;;;13.30
16956;BMP180;8594;52.052;8.354;2022-11-15T00:57:03;100030.00;;;13.20
16956;BMP180;8594;52.052;8.354;2022-11-15T00:59:30;100029.00;;;13.10
16956;BMP180;8594;52.052;8.354;2022-11-15T01:01:57;100028.00;;;13.40
16956;BMP180;8594;52.052;8.354;2022-11-15T01:04:24;100021.00;;;13.40
16956;BMP180;8594;52.052;8.354;2022-11-15T01:06:51;100023.00;;;13.60
16956;BMP180;8594;52.052;8.354;2022-11-15T01:09:19;100013.00;;;13.60
16956;BMP180;8594;52.052;8.354;2022-11-15T01:11:46;100021.00;;;13.40
16956;BMP180;8594;52.052;8.354;2022-11-15T01:14:13;100012.00;;;13.70
16956;BMP180;8594;52.052;8.354;2022-11-15T01:16:40;100013.00;;;13.70
16956;BMP180;8594;52.052;8.354;2022-11-15T01:19:07;100020.00;;;13.80
16956;BMP180;8594;52.052;8.354;2022-11-15T01:21:34;100014.00;;;13.70
16956;BMP180;8594;52.052;8.354;2022-11-15T01:24:01;100010.00;;;13.40
16956;BMP180;8594;52.052;8.354;2022-11-15T01:26:29;100008.00;;;13.80
16956;BMP180;8594;52.052;8.354;2022-11-15T01:28:56;100004.00;;;13.60
16956;BMP180;8594;52.052;8.354;2022-11-15T01:31:23;99998.00;;;13.60
16956;BMP180;8594;52.052;8.354;2022-11-15T01:33:50;99995.00;;;13.50
16956;BMP180;8594;52.052;8.354;2022-11-15T01:36:20;99998.00;;;13.70
16956;BMP180;8594;52.052;8.354;2022-11-15T01:38:53;100001.00;;;13.70
16956;BMP180;8594;52.052;8.354;2022-11-15T01:41:24;99992.00;;;13.80
16956;BMP180;8594;52.052;8.354;2022-11-15T01:43:56;99989.00;;;13.70
16956;BMP180;8594;52.052;8.354;2022-11-15T01:46:29;99979.00;;;13.60
16956;BMP180;8594;52.052;8.354;2022-11-15T01:49:01;99980.00;;;13.70
16956;BMP180;8594;52.052;8.354;2022-11-15T01:51:31;99982.00;;;13.70
16956;BMP180;8594;52.052;8.354;2022-11-15T01:54:06;99976.00;;;13.80
16956;BMP180;8594;52.052;8.354;2022-11-15T01:56:41;99976.00;;;13.90
16956;BMP180;8594;52.052;8.354;2022-11-15T01:59:12;99971.00;;;13.60
16956;BMP180;8594;52.052;8.354;2022-11-15T02:01:40;99976.00;;;14.00
16956;BMP180;8594;52.052;8.354;2022-11-15T02:04:13;99974.00;;;14.00
16956;BMP180;8594;52.052;8.354;2022-11-15T02:06:42;99970.00;;;14.00
16956;BMP180;8594;52.052;8.354;2022-11-15T02:09:11;99969.00;;;14.00
16956;BMP180;8594;52.052;8.354;2022-11-15T02:11:38;99973.00;;;14.10
16956;BMP180;8594;52.052;8.354;2022-11-15T02:14:07;99968.00;;;14.30
16956;BMP180;8594;52.052;8.354;2022-11-15T02:16:46;99972.00;;;14.30
16956;BMP180;8594;52.052;8.354;2022-11-15T02:19:40;99966.00;;;14.20
16956;BMP180;8594;52.052;8.354;2022-11-15T02:22:29;99965.00;;;13.90
16956;BMP180;8594;52.052;8.354;2022-11-15T02:25:20;99968.00;;;13.80
16956;BMP180;8594;52.052;8.354;2022-11-15T02:28:42;99965.00;;;14.10
16956;BMP180;8594;52.052;8.354;2022-11-15T02:31:22;99952.00;;;14.00
16956;BMP180;8594;52.052;8.354;2022-11-15T02:33:59;99958.00;;;14.30
16956;BMP180;8594;52.052;8.354;2022-11-15T02:36:40;99953.00;;;14.30
16956;BMP180;8594;52.052;8.354;2022-11-15T02:39:18;99961.00;;;14.20
16956;BMP180;8594;52.052;8.354;2022-11-15T02:41:53;99951.00;;;14.30
16956;BMP180;8594;52.052;8.354;2022-11-15T02:44:28;99960.00;;;14.20
16956;BMP180;8594;52.052;8.354;2022-11-15T02:47:01;99958.00;;;14.10
16956;BMP180;8594;52.052;8.354;2022-11-15T02:49:46;99947.00;;;14.20
16956;BMP180;8594;52.052;8.354;2022-11-15T02:52:15;99951.00;;;14.50
16956;BMP180;8594;52.052;8.354;2022-11-15T02:54:53;99950.00;;;14.30
16956;BMP180;8594;52.052;8.354;2022-11-15T02:57:32;99943.00;;;14.40
16956;BMP180;8594;52.052;8.354;2022-11-15T03:00:06;99944.00;;;14.40
16956;BMP180;8594;52.052;8.354;2022-11-15T03:03:16;99943.00;;;14.20
16956;BMP180;8594;52.052;8.354;2022-11-15T03:05:56;99935.00;;;14.40
16956;BMP180;8594;52.052;8.354;2022-11-15T03:08:32;99943.00;;;14.20
16956;BMP180;8594;52.052;8.354;2022-11-15T03:11:08;99943.00;;;14.10
16956;BMP180;8594;52.052;8.354;2022-11-15T03:13:44;99953.00;;;14.20
16956;BMP180;8594;52.052;8.354;2022-11-15T03:16:19;99948.00;;;14.30
16956;BMP180;8594;52.052;8.354;2022-11-15T03:18:57;99953.00;;;14.40
16956;BMP180;8594;52.052;8.354;2022-11-15T03:21:29;99953.00;;;14.50
16956;BMP180;8594;52.052;8.354;2022-11-15T03:24:03;99948.00;;;14.40
16956;BMP180;8594;52.052;8.354;2022-11-15T03:26:35;99939.00;;;14.40
16956;BMP180;8594;52.052;8.354;2022-11-15T03:29:09;99950.00;;;14.50
16956;BMP180;8594;52.052;8.354;2022-11-15T03:31:44;99952.00;;;14.60
16956;BMP180;8594;52.052;8.354;2022-11-15T03:34:24;99954.00;;;14.40
16956;BMP180;8594;52.052;8.354;2022-11-15T03:36:52;99951.00;;;14.60
16956;BMP180;8594;52.052;8.354;2022-11-15T03:39:21;99952.00;;;14.70
16956;BMP180;8594;52.052;8.354;2022-11-15T03:41:56;99962.00;;;14.80
16956;BMP180;8594;52.052;8.354;2022-11-15T03:44:41;99949.00;;;14.70
16956;BMP180;8594;52.052;8.354;2022-11-15T03:47:16;99957.00;;;14.90
16956;BMP180;8594;52.052;8.354;2022-11-15T03:49:52;99960.00;;;14.90
16956;BMP180;8594;52.052;8.354;2022-11-15T03:52:21;99957.00;;;15.00
16956;BMP180;8594;52.052;8.354;2022-11-15T03:54:50;99958.00;;;15.10
16956;BMP180;8594;52.052;8.354;2022-11-15T03:57:17;99949.00;;;15.00
16956;BMP180;8594;52.052;8.354;2022-11-15T03:59:44;99953.00;;;14.90
16956;BMP180;8594;52.052;8.354;2022-11-15T04:02:13;99956.00;;;15.10
16956;BMP180;8594;52.052;8.354;2022-11-15T04:04:40;99953.00;;;15.00
16956;BMP180;8594;52.052;8.354;2022-11-15T04:07:08;99950.00;;;15.10
16956;BMP180;8594;52.052;8.354;2022-11-15T04:09:35;99940.00;;;15.00
16956;BMP180;8594;52.052;8.354;2022-11-15T04:12:23;99937.00;;;15.10
16956;BMP180;8594;52.052;8.354;2022-11-15T04:14:57;99945.00;;;14.80
16956;BMP180;8594;52.052;8.354;2022-11-15T04:17:39;99946.00;;;14.70
16956;BMP180;8594;52.052;8.354;2022-11-15T04:20:10;99945.00;;;14.90
16956;BMP180;8594;52.052;8.354;2022-11-15T04:22:58;99951.00;;;15.00
16956;BMP180;8594;52.052;8.354;2022-11-15T04:25:44;99947.00;;;14.90
16956;BMP180;8594;52.052;8.354;2022-11-15T04:28:11;99939.00;;;14.90
16956;BMP180;8594;52.052;8.354;2022-11-15T04:30:39;99938.00;;;14.80
16956;BMP180;8594;52.052;8.354;2022-11-15T04:33:06;99938.00;;;15.00
16956;BMP180;8594;52.052;8.354;2022-11-15T04:35:33;99947.00;;;15.10
16956;BMP180;8594;52.052;8.354;2022-11-15T04:38:03;99944.00;;;15.10
16956;BMP180;8594;52.052;8.354;2022-11-15T04:40:29;99948.00;;;15.10
16956;BMP180;8594;52.052;8.354;2022-11-15T04:42:57;99951.00;;;15.00
16956;BMP180;8594;52.052;8.354;2022-11-15T04:45:23;99946.00;;;15.20
16956;BMP180;8594;52.052;8.354;2022-11-15T04:47:50;99953.00;;;15.10
16956;BMP180;8594;52.052;8.354;2022-11-15T04:50:18;99951.00;;;14.80
16956;BMP180;8594;52.052;8.354;2022-11-15T04:52:51;99938.00;;;14.90
16956;BMP180;8594;52.052;8.354;2022-11-15T04:55:20;99948.00;;;14.70
16956;BMP180;8594;52.052;8.354;2022-11-15T04:57:47;99950.00;;;14.70
16956;BMP180;8594;52.052;8.354;2022-11-15T05:00:16;99940.00;;;14.90
16956;BMP180;8594;52.052;8.354;2022-11-15T05:02:43;99947.00;;;14.60
16956;BMP180;8594;52.052;8.354;2022-11-15T05:05:28;99940.00;;;14.50
16956;BMP180;8594;52.052;8.354;2022-11-15T05:07:55;99934.00;;;14.70
16956;BMP180;8594;52.052;8.354;2022-11-15T05:10:23;99943.00;;;14.60
16956;BMP180;8594;52.052;8.354;2022-11-15T05:12:50;99949.00;;;14.60
16956;BMP180;8594;52.052;8.354;2022-11-15T05:15:17;99947.00;;;14.60
16956;BMP180;8594;52.052;8.354;2022-11-15T05:17:43;99944.00;;;14.70
16956;BMP180;8594;52.052;8.354;2022-11-15T05:20:11;99942.00;;;14.40
16956;BMP180;8594;52.052;8.354;2022-11-15T05:22:39;99942.00;;;14.60
16956;BMP180;8594;52.052;8.354;2022-11-15T05:25:07;99936.00;;;14.50
16956;BMP180;8594;52.052;8.354;2022-11-15T05:27:35;99940.00;;;14.60
16956;BMP180;8594;52.052;8.354;2022-11-15T05:30:03;99938.00;;;14.40
16956;BMP180;8594;52.052;8.354;2022-11-15T05:32:30;99944.00;;;14.50
16956;BMP180;8594;52.052;8.354;2022-11-15T05:34:57;99935.00;;;14.50
16956;BMP180;8594;52.052;8.354;2022-11-15T05:37:25;99930.00;;;14.50
16956;BMP180;8594;52.052;8.354;2022-11-15T05:39:51;99930.00;;;14.50
16956;BMP180;8594;52.052;8.354;2022-11-15T05:42:18;99924.00;;;14.40
16956;BMP180;8594;52.052;8.354;2022-11-15T05:44:49;99927.00;;;14.60
16956;BMP180;8594;52.052;8.354;2022-11-15T05:47:21;99935.00;;;14.50
16956;BMP180;8594;52.052;8.354;2022-11-15T05:49:51;99937.00;;;14.70
16956;BMP180;8594;52.052;8.354;2022-11-15T05:52:23;99929.00;;;14.80
16956;BMP180;8594;52.052;8.354;2022-11-15T05:54:52;99930.00;;;14.80
16956;BMP180;8594;52.052;8.354;2022-11-15T05:57:20;99932.00;;;14.90
16956;BMP180;8594;52.052;8.354;2022-11-15T05:59:48;99926.00;;;14.80
16956;BMP180;8594;52.052;8.354;2022-11-15T06:02:15;99931.00;;;14.70
16956;BMP180;8594;52.052;8.354;2022-11-15T06:04:42;99925.00;;;14.70
16956;BMP180;8594;52.052;8.354;2022-11-15T06:07:09;99922.00;;;14.80
16956;BMP180;8594;52.052;8.354;2022-11-15T06:09:36;99932.00;;;14.60
16956;BMP180;8594;52.052;8.354;2022-11-15T06:12:03;99929.00;;;14.60
16956;BMP180;8594;52.052;8.354;2022-11-15T06:14:30;99927.00;;;14.60
16956;BMP180;8594;52.052;8.354;2022-11-15T06:16:58;99927.00;;;14.50
16956;BMP180;8594;52.052;8.354;2022-11-15T06:19:25;99926.00;;;14.40
16956;BMP180;8594;52.052;8.354;2022-11-15T06:21:52;99921.00;;;14.50
16956;BMP180;8594;52.052;8.354;2022-11-15T06:24:19;99938.00;;;14.50
16956;BMP180;8594;52.052;8.354;2022-11-15T06:26:46;99932.00;;;14.70
16956;BMP180;8594;52.052;8.354;2022-11-15T06:29:13;99930.00;;;14.60
16956;BMP180;8594;52.052;8.354;2022-11-15T06:31:40;99935.00;;;14.70
16956;BMP180;8594;52.052;8.354;2022-11-15T06:34:08;99926.00;;;14.90
16956;BMP180;8594;52.052;8.354;2022-11-15T06:36:36;99934.00;;;14.70
16956;BMP180;8594;52.052;8.354;2022-11-15T06:39:04;99939.00;;;14.60
16956;BMP180;8594;52.052;8.354;2022-11-15T06:41:34;99941.00;;;14.80
16956;BMP180;8594;52.052;8.354;2022-11-15T06:44:01;99937.00;;;14.70
16956;BMP180;8594;52.052;8.354;2022-11-15T06:46:28;99939.00;;;14.70
16956;BMP180;8594;52.052;8.354;2022-11-15T06:48:55;99938.00;;;14.70
16956;BMP180;8594;52.052;8.354;2022-11-15T06:51:23;99947.00;;;14.90
16956;BMP180;8594;52.052;8.354;2022-11-15T06:53:50;99938.00;;;14.70
16956;BMP180;8594;52.052;8.354;2022-11-15T06:56:17;99942.00;;;14.60
16956;BMP180;8594;52.052;8.354;2022-11-15T06:58:44;99948.00;;;14.70
16956;BMP180;8594;52.052;8.354;2022-11-15T07:01:12;99950.00;;;14.80
16956;BMP180;8594;52.052;8.354;2022-11-15T07:03:41;99952.00;;;14.70
16956;BMP180;8594;52.052;8.354;2022-11-15T07:06:09;99962.00;;;14.90
16956;BMP180;8594;52.052;8.354;2022-11-15T07:08:38;99963.00;;;14.90
16956;BMP180;8594;52.052;8.354;2022-11-15T07:11:07;99960.00;;;15.00
16956;BMP180;8594;52.052;8.354;2022-11-15T07:13:35;99961.00;;;15.00
16956;BMP180;8594;52.052;8.354;2022-11-15T07:16:04;99962.00;;;14.60
16956;BMP180;8594;52.052;8.354;2022-11-15T07:18:33;99963.00;;;14.80
16956;BMP180;8594;52.052;8.354;2022-11-15T07:21:02;99964.00;;;14.90
16956;BMP180;8594;52.052;8.354;2022-11-15T07:23:29;99972.00;;;14.90
16956;BMP180;8594;52.052;8.354;2022-11-15T07:25:58;99961.00;;;15.00
16956;BMP180;8594;52.052;8.354;2022-11-15T07:28:25;99964.00;;;15.00
16956;BMP180;8594;52.052;8.354;2022-11-15T07:30:52;99977.00;;;15.30
16956;BMP180;8594;52.052;8.354;2022-11-15T07:33:19;99966.00;;;15.30
16956;BMP180;8594;52.052;8.354;2022-11-15T07:35:46;99974.00;;;15.30
16956;BMP180;8594;52.052;8.354;2022-11-15T07:38:15;99975.00;;;15.30
16956;BMP180;8594;52.052;8.354;2022-11-15T07:40:45;99973.00;;;15.30
16956;BMP180;8594;52.052;8.354;2022-11-15T07:43:14;99980.00;;;15.50
16956;BMP180;8594;52.052;8.354;2022-11-15T07:45:42;99978.00;;;15.40
16956;BMP180;8594;52.052;8.354;2022-11-15T07:48:10;99975.00;;;15.40
16956;BMP180;8594;52.052;8.354;2022-11-15T07:50:40;99965.00;;;15.40
16956;BMP180;8594;52.052;8.354;2022-11-15T07:53:09;99975.00;;;15.30
16956;BMP180;8594;52.052;8.354;2022-11-15T07:55:36;99975.00;;;15.30
16956;BMP180;8594;52.052;8.354;2022-11-15T07:58:06;99975.00;;;15.30
16956;BMP180;8594;52.052;8.354;2022-11-15T08:00:35;99976.00;;;15.40
16956;BMP180;8594;52.052;8.354;2022-11-15T08:03:04;99982.00;;;15.50
16956;BMP180;8594;52.052;8.354;2022-11-15T08:05:31;99967.00;;;15.20
16956;BMP180;8594;52.052;8.354;2022-11-15T08:07:58;99971.00;;;15.10
16956;BMP180;8594;52.052;8.354;2022-11-15T08:10:26;99971.00;;;15.30
16956;BMP180;8594;52.052;8.354;2022-11-15T08:12:58;99977.00;;;15.60
16956;BMP180;8594;52.052;8.354;2022-11-15T08:15:26;99966.00;;;15.70
16956;BMP180;8594;52.052;8.354;2022-11-15T08:17:56;99962.00;;;15.80
16956;BMP180;8594;52.052;8.354;2022-11-15T08:20:23;99962.00;;;15.80
16956;BMP180;8594;52.052;8.354;2022-11-15T08:22:51;99961.00;;;15.80
16956;BMP180;8594;52.052;8.354;2022-11-15T08:25:18;99952.00;;;15.80
16956;BMP180;8594;52.052;8.354;2022-11-15T08:27:45;99960.00;;;15.70
16956;BMP180;8594;52.052;8.354;2022-11-15T08:30:12;99964.00;;;16.00
16956;BMP180;8594;52.052;8.354;2022-11-15T08:32:41;99967.00;;;16.00
16956;BMP180;8594;52.052;8.354;2022-11-15T08:35:10;99962.00;;;16.20
16956;BMP180;8594;52.052;8.354;2022-11-15T08:37:37;99963.00;;;16.10
16956;BMP180;8594;52.052;8.354;2022-11-15T08:40:06;99952.00;;;16.20
16956;BMP180;8594;52.052;8.354;2022-11-15T08:42:33;99952.00;;;16.40
16956;BMP180;8594;52.052;8.354;2022-11-15T08:45:00;99948.00;;;16.50
16956;BMP180;8594;52.052;8.354;2022-11-15T08:47:27;99948.00;;;16.60
16956;BMP180;8594;52.052;8.354;2022-11-15T08:49:54;99951.00;;;16.80
16956;BMP180;8594;52.052;8.354;2022-11-15T08:52:22;99960.00;;;16.80
16956;BMP180;8594;52.052;8.354;2022-11-15T08:54:49;99954.00;;;16.80
16956;BMP180;8594;52.052;8.354;2022-11-15T08:57:16;99962.00;;;16.40
16956;BMP180;8594;52.052;8.354;2022-11-15T08:59:43;99959.00;;;16.50
16956;BMP180;8594;52.052;8.354;2022-11-15T09:02:13;99952.00;;;16.50
16956;BMP180;8594;52.052;8.354;2022-11-15T09:04:41;99967.00;;;16.80
16956;BMP180;8594;52.052;8.354;2022-11-15T09:07:08;99950.00;;;16.40
16956;BMP180;8594;52.052;8.354;2022-11-15T09:09:37;99952.00;;;17.00
16956;BMP180;8594;52.052;8.354;2022-11-15T09:12:06;99946.00;;;17.40
16956;BMP180;8594;52.052;8.354;2022-11-15T09:14:33;99950.00;;;17.90
16956;BMP180;8594;52.052;8.354;2022-11-15T09:17:01;99944.00;;;18.20
16956;BMP180;8594;52.052;8.354;2022-11-15T09:19:28;99946.00;;;18.90
16956;BMP180;8594;52.052;8.354;2022-11-15T09:21:55;99942.00;;;18.70
16956;BMP180;8594;52.052;8.354;2022-11-15T09:24:22;99956.00;;;19.20
16956;BMP180;8594;52.052;8.354;2022-11-15T09:26:51;99956.00;;;19.30
16956;BMP180;8594;52.052;8.354;2022-11-15T09:29:18;99957.00;;;19.60
16956;BMP180;8594;52.052;8.354;2022-11-15T09:31:45;99951.00;;;20.00
16956;BMP180;8594;52.052;8.354;2022-11-15T09:34:12;99950.00;;;20.20
16956;BMP180;8594;52.052;8.354;2022-11-15T09:36:39;99952.00;;;19.90
16956;BMP180;8594;52.052;8.354;2022-11-15T09:39:06;99952.00;;;20.10
16956;BMP180;8594;52.052;8.354;2022-11-15T09:42:01;99957.00;;;20.40
16956;BMP180;8594;52.052;8.354;2022-11-15T09:44:59;99967.00;;;21.20
16956;BMP180;8594;52.052;8.354;2022-11-15T09:48:03;99961.00;;;20.30
16956;BMP180;8594;52.052;8.354;2022-11-15T09:50:41;99965.00;;;19.80
16956;BMP180;8594;52.052;8.354;2022-11-15T09:53:14;99964.00;;;20.90
16956;BMP180;8594;52.052;8.354;2022-11-15T09:55:50;99965.00;;;20.20
16956;BMP180;8594;52.052;8.354;2022-11-15T09:58:29;99966.00;;;20.30
16956;BMP180;8594;52.052;8.354;2022-11-15T10:01:06;99958.00;;;19.70
16956;BMP180;8594;52.052;8.354;2022-11-15T10:03:38;99955.00;;;19.90
16956;BMP180;8594;52.052;8.354;2022-11-15T10:06:16;99957.00;;;20.60
16956;BMP180;8594;52.052;8.354;2022-11-15T10:08:58;99959.00;;;20.60
16956;BMP180;8594;52.052;8.354;2022-11-15T10:11:32;99951.00;;;20.50
16956;BMP180;8594;52.052;8.354;2022-11-15T10:14:05;99944.00;;;20.40
16956;BMP180;8594;52.052;8.354;2022-11-15T10:17:13;99940.00;;;20.40
16956;BMP180;8594;52.052;8.354;2022-11-15T10:19:53;99933.00;;;20.60
16956;BMP180;8594;52.052;8.354;2022-11-15T10:22:28;99938.00;;;20.60
16956;BMP180;8594;52.052;8.354;2022-11-15T10:25:16;99923.00;;;20.10
16956;BMP180;8594;52.052;8.354;2022-11-15T10:27:48;99933.00;;;20.50
16956;BMP180;8594;52.052;8.354;2022-11-15T10:30:19;99914.00;;;20.90
16956;BMP180;8594;52.052;8.354;2022-11-15T10:32:48;99916.00;;;20.80
16956;BMP180;8594;52.052;8.354;2022-11-15T10:35:19;99906.00;;;20.40
16956;BMP180;8594;52.052;8.354;2022-11-15T10:37:47;99908.00;;;20.90
16956;BMP180;8594;52.052;8.354;2022-11-15T10:40:21;99901.00;;;21.40
16956;BMP180;8594;52.052;8.354;2022-11-15T10:43:04;99901.00;;;21.00
16956;BMP180;8594;52.052;8.354;2022-11-15T10:45:34;99902.00;;;20.90
16956;BMP180;8594;52.052;8.354;2022-11-15T10:48:24;99901.00;;;21.00
16956;BMP180;8594;52.052;8.354;2022-11-15T10:50:53;99888.00;;;20.80
16956;BMP180;8594;52.052;8.354;2022-11-15T10:53:29;99890.00;;;20.70
16956;BMP180;8594;52.052;8.354;2022-11-15T10:56:01;99891.00;;;20.50
16956;BMP180;8594;52.052;8.354;2022-11-15T10:58:37;99886.00;;;20.60
16956;BMP180;8594;52.052;8.354;2022-11-15T11:01:15;99884.00;;;21.00
16956;BMP180;8594;52.052;8.354;2022-11-15T11:03:44;99894.00;;;21.50
16956;BMP180;8594;52.052;8.354;2022-11-15T11:06:14;99892.00;;;21.00
16956;BMP180;8594;52.052;8.354;2022-11-15T11:08:55;99898.00;;;19.80
16956;BMP180;8594;52.052;8.354;2022-11-15T11:11:22;99888.00;;;19.70
16956;BMP180;8594;52.052;8.354;2022-11-15T11:13:50;99888.00;;;19.80
16956;BMP180;8594;52.052;8.354;2022-11-15T11:16:37;99881.00;;;20.10
16956;BMP180;8594;52.052;8.354;2022-11-15T11:19:30;99879.00;;;20.00
16956;BMP180;8594;52.052;8.354;2022-11-15T11:22:05;99873.00;;;20.30
16956;BMP180;8594;52.052;8.354;2022-11-15T11:24:44;99869.00;;;20.20
16956;BMP180;8594;52.052;8.354;2022-11-15T11:27:30;99863.00;;;20.30
16956;BMP180;8594;52.052;8.354;2022-11-15T11:30:10;99858.00;;;19.90
16956;BMP180;8594;52.052;8.354;2022-11-15T11:33:05;99863.00;;;20.20
16956;BMP180;8594;52.052;8.354;2022-11-15T11:35:46;99849.00;;;20.00
16956;BMP180;8594;52.052;8.354;2022-11-15T11:38:34;99846.00;;;20.50
16956;BMP180;8594;52.052;8.354;2022-11-15T11:41:18;99842.00;;;20.50
16956;BMP180;8594;52.052;8.354;2022-11-15T11:44:01;99834.00;;;20.50
16956;BMP180;8594;52.052;8.354;2022-11-15T11:46:49;99831.00;;;20.80
16956;BMP180;8594;52.052;8.354;2022-11-15T11:49:28;99837.00;;;20.70
16956;BMP180;8594;52.052;8.354;2022-11-15T11:52:05;99829.00;;;21.20
16956;BMP180;8594;52.052;8.354;2022-11-15T11:54:44;99833.00;;;20.60
16956;BMP180;8594;52.052;8.354;2022-11-15T11:57:24;99828.00;;;20.40
16956;BMP180;8594;52.052;8.354;2022-11-15T11:59:59;99831.00;;;20.80
16956;BMP180;8594;52.052;8.354;2022-11-15T12:02:31;99821.00;;;21.10
16956;BMP180;8594;52.052;8.354;2022-11-15T12:05:10;99820.00;;;21.50
16956;BMP180;8594;52.052;8.354;2022-11-15T12:07:40;99819.00;;;21.70
16956;BMP180;8594;52.052;8.354;2022-11-15T12:10:19;99809.00;;;21.50
16956;BMP180;8594;52.052;8.354;2022-11-15T12:12:55;99810.00;;;20.40
16956;BMP180;8594;52.052;8.354;2022-11-15T12:15:27;99801.00;;;20.90
16956;BMP180;8594;52.052;8.354;2022-11-15T12:17:57;99806.00;;;21.20
16956;BMP180;8594;52.052;8.354;2022-11-15T12:20:33;99806.00;;;21.10
16956;BMP180;8594;52.052;8.354;2022-11-15T12:23:06;99818.00;;;21.30
16956;BMP180;8594;52.052;8.354;2022-11-15T12:25:49;99800.00;;;20.80
16956;BMP180;8594;52.052;8.354;2022-11-15T12:28:26;99803.00;;;21.10
16956;BMP180;8594;52.052;8.354;2022-11-15T12:31:03;99793.00;;;21.20
16956;BMP180;8594;52.052;8.354;2022-11-15T12:33:37;99799.00;;;21.40
16956;BMP180;8594;52.052;8.354;2022-11-15T12:36:11;99794.00;;;21.40
16956;BMP180;8594;52.052;8.354;2022-11-15T12:39:00;99794.00;;;21.30
16956;BMP180;8594;52.052;8.354;2022-11-15T12:41:29;99793.00;;;20.70
16956;BMP180;8594;52.052;8.354;2022-11-15T12:43:57;99788.00;;;20.50
16956;BMP180;8594;52.052;8.354;2022-11-15T12:47:02;99784.00;;;20.90
16956;BMP180;8594;52.052;8.354;2022-11-15T12:49:46;99769.00;;;19.90
16956;BMP180;8594;52.052;8.354;2022-11-15T12:52:16;99775.00;;;20.30
16956;BMP180;8594;52.052;8.354;2022-11-15T12:55:01;99777.00;;;20.40
16956;BMP180;8594;52.052;8.354;2022-11-15T12:57:42;99769.00;;;20.20
16956;BMP180;8594;52.052;8.354;2022-11-15T13:00:43;99766.00;;;20.40
16956;BMP180;8594;52.052;8.354;2022-11-15T13:03:28;99760.00;;;20.30
16956;BMP180;8594;52.052;8.354;2022-11-15T13:06:39;99762.00;;;20.20
16956;BMP180;8594;52.052;8.354;2022-11-15T13:12:55;99751.00;;;20.60
16956;BMP180;8594;52.052;8.354;2022-11-15T13:16:01;99744.00;;;20.60
16956;BMP180;8594;52.052;8.354;2022-11-15T13:18:44;99747.00;;;20.50
16956;BMP180;8594;52.052;8.354;2022-11-15T13:21:33;99752.00;;;20.50
16956;BMP180;8594;52.052;8.354;2022-11-15T13:24:31;99748.00;;;20.70
16956;BMP180;8594;52.052;8.354;2022-11-15T13:27:18;99746.00;;;20.80
16956;BMP180;8594;52.052;8.354;2022-11-15T13:29:56;99731.00;;;20.50
16956;BMP180;8594;52.052;8.354;2022-11-15T13:32:30;99745.00;;;20.50
16956;BMP180;8594;52.052;8.354;2022-11-15T13:35:32;99740.00;;;20.50
16956;BMP180;8594;52.052;8.354;2022-11-15T13:38:05;99734.00;;;20.20
16956;BMP180;8594;52.052;8.354;2022-11-15T13:40:36;99736.00;;;19.90
16956;BMP180;8594;52.052;8.354;2022-11-15T13:43:28;99728.00;;;19.80
16956;BMP180;8594;52.052;8.354;2022-11-15T13:46:09;99726.00;;;19.90
16956;BMP180;8594;52.052;8.354;2022-11-15T13:48:40;99730.00;;;19.90
16956;BMP180;8594;52.052;8.354;2022-11-15T13:51:16;99737.00;;;19.90
16956;BMP180;8594;52.052;8.354;2022-11-15T13:53:54;99726.00;;;19.70
16956;BMP180;8594;52.052;8.354;2022-11-15T13:56:23;99724.00;;;19.90
16956;BMP180;8594;52.052;8.354;2022-11-15T13:58:52;99719.00;;;19.70
16956;BMP180;8594;52.052;8.354;2022-11-15T14:01:35;99718.00;;;19.60
16956;BMP180;8594;52.052;8.354;2022-11-15T14:04:03;99713.00;;;19.60
16956;BMP180;8594;52.052;8.354;2022-11-15T14:06:31;99708.00;;;19.40
16956;BMP180;8594;52.052;8.354;2022-11-15T14:09:31;99711.00;;;19.30
16956;BMP180;8594;52.052;8.354;2022-11-15T14:12:02;99712.00;;;19.20
16956;BMP180;8594;52.052;8.354;2022-11-15T14:14:31;99707.00;;;19.30
16956;BMP180;8594;52.052;8.354;2022-11-15T14:17:01;99708.00;;;18.80
16956;BMP180;8594;52.052;8.354;2022-11-15T14:19:39;99720.00;;;18.90
16956;BMP180;8594;52.052;8.354;2022-11-15T14:22:14;99711.00;;;19.10
16956;BMP180;8594;52.052;8.354;2022-11-15T14:24:45;99719.00;;;19.00
16956;BMP180;8594;52.052;8.354;2022-11-15T14:27:24;99707.00;;;18.80
16956;BMP180;8594;52.052;8.354;2022-11-15T14:29:52;99701.00;;;18.80
16956;BMP180;8594;52.052;8.354;2022-11-15T14:32:22;99694.00;;;18.50
16956;BMP180;8594;52.052;8.354;2022-11-15T14:34:55;99690.00;;;18.70
16956;BMP180;8594;52.052;8.354;2022-11-15T14:37:33;99688.00;;;19.10
16956;BMP180;8594;52.052;8.354;2022-11-15T14:40:02;99684.00;;;19.10
16956;BMP180;8594;52.052;8.354;2022-11-15T14:42:29;99686.00;;;19.00
16956;BMP180;8594;52.052;8.354;2022-11-15T14:44:56;99681.00;;;19.10
16956;BMP180;8594;52.052;8.354;2022-11-15T14:47:23;99679.00;;;19.40
16956;BMP180;8594;52.052;8.354;2022-11-15T14:49:50;99679.00;;;18.90
16956;BMP180;8594;52.052;8.354;2022-11-15T14:52:26;99673.00;;;19.20
16956;BMP180;8594;52.052;8.354;2022-11-15T14:54:56;99665.00;;;18.90